Time;durP1;ratioP1;P1;durP2;ratioP2;P2;SDS_P1;SDS_P2;PMS_P1;PMS_P2;Temp;Humidity;BMP_temperature;BMP_pressure;BME280_temperature;BME280_humidity;BME280_pressure;Samples;Min_cycle;Max_cycle;Signal;HPM_P1;HPM_P2
2022/01/06 00:01:46;;;;;;;23.15;14.77;;;6.80;89.10;;;;;;5036207;28;20362;-39
2022/01/06 00:04:12;;;;;;;25.73;15.85;;;6.90;89.00;;;;;;5035946;28;20038;-38
2022/01/06 00:06:41;;;;;;;25.90;16.00;;;6.80;88.90;;;;;;5036029;28;20053;-38
2022/01/06 00:09:09;;;;;;;25.30;14.93;;;6.80;88.70;;;;;;5035936;28;20065;-38
2022/01/06 00:11:35;;;;;;;24.17;15.23;;;6.80;88.70;;;;;;5036155;28;20388;-39
2022/01/06 00:14:11;;;;;;;24.98;16.35;;;6.70;88.60;;;;;;5036028;28;20030;-39
2022/01/06 00:17:03;;;;;;;30.30;16.05;;;6.70;88.60;;;;;;5036122;28;20029;-38
2022/01/06 00:24:56;;;;;;;23.25;15.30;;;6.60;89.00;;;;;;5036144;28;20040;-38
2022/01/06 00:27:22;;;;;;;28.17;15.95;;;6.60;89.10;;;;;;5036122;28;20026;-38
2022/01/06 00:29:48;;;;;;;26.38;15.82;;;6.60;89.10;;;;;;5035359;28;20036;-38
2022/01/06 00:32:13;;;;;;;27.10;15.80;;;6.60;89.00;;;;;;5035964;28;20129;-38
2022/01/06 00:34:39;;;;;;;25.48;15.43;;;6.50;89.00;;;;;;5035657;28;20039;-38
2022/01/06 00:37:05;;;;;;;25.88;16.45;;;6.50;88.90;;;;;;5035964;28;20478;-39
2022/01/06 00:39:30;;;;;;;23.73;15.00;;;6.50;89.00;;;;;;5035487;28;20418;-38
2022/01/06 00:41:58;;;;;;;25.25;16.55;;;6.50;88.90;;;;;;5039587;28;20037;-38
2022/01/06 00:44:24;;;;;;;23.30;15.63;;;6.40;89.00;;;;;;5039451;28;20045;-39
2022/01/06 00:46:51;;;;;;;26.75;16.52;;;6.40;88.90;;;;;;5039662;28;20034;-38
2022/01/06 00:49:17;;;;;;;31.05;18.08;;;6.40;89.00;;;;;;5039193;28;20119;-39
2022/01/06 00:51:43;;;;;;;29.30;17.30;;;6.40;88.90;;;;;;5039666;28;20029;-39
2022/01/06 00:54:10;;;;;;;24.13;16.75;;;6.40;88.90;;;;;;5039350;28;20575;-39
2022/01/06 00:56:35;;;;;;;30.80;16.80;;;6.40;89.00;;;;;;5039489;28;20372;-39
2022/01/06 00:59:01;;;;;;;28.02;16.95;;;6.30;89.20;;;;;;5039396;28;20120;-37
2022/01/06 01:01:27;;;;;;;27.73;16.33;;;6.30;89.20;;;;;;5038862;28;20113;-39
2022/01/06 01:03:52;;;;;;;25.20;15.77;;;6.30;89.10;;;;;;5039774;28;20099;-38
2022/01/06 01:06:18;;;;;;;25.50;16.20;;;6.30;89.10;;;;;;5039222;28;20064;-38
2022/01/06 01:08:44;;;;;;;28.40;16.15;;;6.30;89.20;;;;;;5039268;28;20377;-38
2022/01/06 01:11:09;;;;;;;27.92;16.92;;;6.30;89.40;;;;;;5038913;28;20029;-39
2022/01/06 01:13:43;;;;;;;28.25;16.73;;;6.20;89.30;;;;;;5039203;28;20021;-38
2022/01/06 01:16:21;;;;;;;26.73;16.58;;;6.20;89.30;;;;;;5038699;28;20030;-38
2022/01/06 01:18:49;;;;;;;29.75;16.92;;;6.20;89.40;;;;;;5038928;28;20118;-39
2022/01/06 01:21:15;;;;;;;24.35;15.50;;;6.20;89.40;;;;;;5038682;28;20025;-38
2022/01/06 01:23:41;;;;;;;24.08;16.00;;;6.20;89.40;;;;;;5039157;28;20151;-37
2022/01/06 01:26:06;;;;;;;25.70;15.45;;;6.20;89.50;;;;;;5038786;28;20108;-39
2022/01/06 01:28:42;;;;;;;22.65;14.88;;;6.20;89.50;;;;;;5038811;28;20491;-39
2022/01/06 01:33:49;;;;;;;25.15;14.70;;;6.20;89.50;;;;;;5038821;28;20087;-37
2022/01/06 01:36:15;;;;;;;27.98;16.02;;;6.20;89.60;;;;;;5038683;28;20026;-37
2022/01/06 01:38:41;;;;;;;24.58;15.68;;;6.20;89.70;;;;;;5038613;28;20108;-38
2022/01/06 01:41:08;;;;;;;27.55;15.50;;;6.20;89.70;;;;;;5038649;28;20051;-37
2022/01/06 01:43:35;;;;;;;27.98;15.02;;;6.20;89.80;;;;;;5038725;28;20406;-37
2022/01/06 01:46:09;;;;;;;29.40;17.58;;;6.20;90.00;;;;;;5038459;28;20084;-38
2022/01/06 01:48:39;;;;;;;25.45;14.93;;;6.20;90.00;;;;;;5038617;28;20441;-39
2022/01/06 01:51:05;;;;;;;26.38;16.08;;;6.20;90.00;;;;;;5037469;28;20108;-38
2022/01/06 01:53:30;;;;;;;22.60;14.48;;;6.20;90.00;;;;;;5037823;28;20452;-39
2022/01/06 01:55:56;;;;;;;26.60;14.63;;;6.20;90.00;;;;;;5038027;28;20021;-39
2022/01/06 01:58:22;;;;;;;24.50;14.70;;;6.20;90.10;;;;;;5038477;28;20022;-39
2022/01/06 02:00:48;;;;;;;25.35;15.63;;;6.20;90.10;;;;;;5038149;28;20061;-38
2022/01/06 02:03:14;;;;;;;26.63;15.82;;;6.20;90.10;;;;;;5038403;28;20029;-39
2022/01/06 02:05:40;;;;;;;27.55;16.75;;;6.20;90.10;;;;;;5038311;28;20048;-37
2022/01/06 02:08:06;;;;;;;29.20;16.80;;;6.20;90.10;;;;;;5038197;28;20075;-37
2022/01/06 02:10:32;;;;;;;28.15;16.60;;;6.20;90.00;;;;;;5037697;28;20030;-38
2022/01/06 02:13:00;;;;;;;29.58;15.82;;;6.20;90.00;;;;;;5037867;28;20048;-38
2022/01/06 02:15:27;;;;;;;30.25;16.35;;;6.20;90.00;;;;;;5038145;28;20108;-38
2022/01/06 02:17:53;;;;;;;23.33;15.27;;;6.20;90.00;;;;;;5038108;28;20060;-38
2022/01/06 02:20:21;;;;;;;32.85;17.30;;;6.20;90.00;;;;;;5037579;28;20068;-38
2022/01/06 02:22:48;;;;;;;26.30;15.52;;;6.20;89.90;;;;;;5038068;28;20030;-38
2022/01/06 02:25:33;;;;;;;38.05;18.17;;;6.20;89.70;;;;;;5037806;28;20029;-37
2022/01/06 02:28:02;;;;;;;27.75;16.33;;;6.20;89.40;;;;;;5038116;28;20116;-38
2022/01/06 02:30:28;;;;;;;28.30;17.25;;;6.10;89.40;;;;;;5037763;28;20421;-38
2022/01/06 02:32:55;;;;;;;31.75;17.02;;;6.10;89.40;;;;;;5037816;28;20053;-38
2022/01/06 02:35:22;;;;;;;25.80;16.75;;;6.10;89.50;;;;;;5037577;28;20152;-38
2022/01/06 02:37:48;;;;;;;28.40;16.75;;;6.00;89.60;;;;;;5037411;28;20113;-39
2022/01/06 02:40:22;;;;;;;26.15;16.30;;;6.00;89.80;;;;;;5037562;28;20141;-39
2022/01/06 02:42:52;;;;;;;29.02;16.15;;;6.00;89.90;;;;;;5037694;28;20464;-39
2022/01/06 02:45:19;;;;;;;29.05;16.98;;;6.00;90.00;;;;;;5037519;28;20437;-38
2022/01/06 02:47:47;;;;;;;24.10;15.98;;;6.00;90.00;;;;;;5037571;28;20060;-39
2022/01/06 02:50:14;;;;;;;26.52;15.45;;;6.00;90.10;;;;;;5036772;28;20057;-39
2022/01/06 02:52:39;;;;;;;29.15;16.30;;;6.00;90.10;;;;;;5036060;28;20033;-38
2022/01/06 02:55:07;;;;;;;25.48;15.50;;;6.00;90.00;;;;;;5037080;28;20326;-38
2022/01/06 02:57:33;;;;;;;28.85;16.30;;;5.90;90.00;;;;;;5037321;28;20025;-38
2022/01/06 02:59:58;;;;;;;26.20;15.55;;;5.90;90.10;;;;;;5037141;28;20033;-37
2022/01/06 03:02:24;;;;;;;26.08;16.65;;;5.90;90.10;;;;;;5036958;28;20393;-38
2022/01/06 03:04:50;;;;;;;24.80;16.20;;;5.90;90.00;;;;;;5036699;28;20037;-38
2022/01/06 03:07:16;;;;;;;30.08;17.00;;;5.90;90.00;;;;;;5036863;28;20409;-37
2022/01/06 03:09:43;;;;;;;31.10;16.23;;;5.90;90.00;;;;;;5036900;28;20037;-38
2022/01/06 03:14:54;;;;;;;32.40;18.10;;;5.80;89.90;;;;;;5036782;28;20040;-39
2022/01/06 03:17:20;;;;;;;33.13;18.45;;;5.80;90.00;;;;;;5036588;28;20048;-38
2022/01/06 03:19:46;;;;;;;36.55;18.92;;;5.80;90.00;;;;;;5036720;28;20025;-38
2022/01/06 03:22:13;;;;;;;34.95;19.08;;;5.80;90.00;;;;;;5036946;28;20112;-38
2022/01/06 03:24:39;;;;;;;36.50;21.10;;;5.70;90.10;;;;;;5036764;28;20042;-39
2022/01/06 03:27:05;;;;;;;39.85;22.30;;;5.70;90.30;;;;;;5036577;28;20088;-39
2022/01/06 03:29:31;;;;;;;37.38;22.98;;;5.70;90.10;;;;;;5036428;28;20037;-38
2022/01/06 03:31:58;;;;;;;43.90;23.20;;;5.70;90.00;;;;;;5036533;28;20025;-38
2022/01/06 03:34:24;;;;;;;41.38;21.73;;;5.60;89.80;;;;;;5036031;28;20037;-38
2022/01/06 03:36:50;;;;;;;39.05;20.63;;;5.60;89.80;;;;;;5036168;28;20028;-38
2022/01/06 03:39:15;;;;;;;40.50;22.13;;;5.60;89.90;;;;;;5036409;28;20087;-37
2022/01/06 03:41:41;;;;;;;35.55;19.77;;;5.50;89.80;;;;;;5036276;28;20116;-37
2022/01/06 03:44:06;;;;;;;34.92;19.70;;;5.50;90.00;;;;;;5036171;28;20044;-38
2022/01/06 03:46:33;;;;;;;34.38;20.67;;;5.50;90.10;;;;;;5036372;28;20025;-38
2022/01/06 03:48:58;;;;;;;33.33;19.83;;;5.50;90.10;;;;;;5035922;28;20053;-38
2022/01/06 03:51:25;;;;;;;41.35;21.13;;;5.50;90.10;;;;;;5035892;28;20029;-39
2022/01/06 03:53:51;;;;;;;35.00;20.27;;;5.40;89.90;;;;;;5036071;28;20104;-37
2022/01/06 03:56:17;;;;;;;33.22;18.60;;;5.40;90.00;;;;;;5036077;28;20317;-39
2022/01/06 03:58:44;;;;;;;28.80;17.58;;;5.40;90.20;;;;;;5036023;28;20049;-38
2022/01/06 04:01:10;;;;;;;32.47;18.48;;;5.40;90.40;;;;;;5035967;28;20022;-38
2022/01/06 04:03:35;;;;;;;31.88;18.27;;;5.40;90.70;;;;;;5036039;28;20030;-38
2022/01/06 04:06:01;;;;;;;29.02;17.75;;;5.40;90.80;;;;;;5035634;28;20089;-37
2022/01/06 04:08:27;;;;;;;32.03;19.40;;;5.50;91.00;;;;;;5035752;28;20021;-39
2022/01/06 04:10:53;;;;;;;25.55;16.73;;;5.50;91.00;;;;;;5035624;28;20044;-38
2022/01/06 04:13:19;;;;;;;30.00;18.05;;;5.50;91.20;;;;;;5035707;28;20065;-40
2022/01/06 04:15:45;;;;;;;31.88;18.02;;;5.50;91.30;;;;;;5035504;28;20408;-39
2022/01/06 04:18:11;;;;;;;27.15;16.88;;;5.60;91.40;;;;;;5035984;28;20052;-38
2022/01/06 04:20:37;;;;;;;30.75;17.38;;;5.60;91.50;;;;;;5035954;28;20025;-40
2022/01/06 04:23:02;;;;;;;26.08;17.25;;;5.70;91.60;;;;;;5036013;28;20029;-39
2022/01/06 04:25:28;;;;;;;26.90;17.10;;;5.70;91.70;;;;;;5035962;28;20398;-40
2022/01/06 04:27:54;;;;;;;26.60;16.67;;;5.80;91.90;;;;;;5035993;28;20110;-38
2022/01/06 04:30:19;;;;;;;27.65;16.08;;;5.90;92.00;;;;;;5035829;28;20371;-39
2022/01/06 04:32:45;;;;;;;27.33;17.48;;;5.90;92.10;;;;;;5035691;28;20468;-40
2022/01/06 04:35:11;;;;;;;26.58;17.48;;;6.00;92.20;;;;;;5035659;28;20057;-40
2022/01/06 04:37:37;;;;;;;26.02;16.98;;;6.00;92.20;;;;;;5035526;28;20057;-39
2022/01/06 04:40:04;;;;;;;32.67;18.50;;;6.10;92.20;;;;;;5035699;28;20037;-38
2022/01/06 04:42:30;;;;;;;29.60;17.60;;;6.20;92.10;;;;;;5035429;28;20033;-38
2022/01/06 04:44:56;;;;;;;29.13;18.23;;;6.20;92.00;;;;;;5035299;28;20060;-38
2022/01/06 04:47:22;;;;;;;30.60;18.25;;;6.30;91.80;;;;;;5035465;28;20029;-39
2022/01/06 04:49:47;;;;;;;27.67;17.63;;;6.30;91.70;;;;;;5035000;28;20081;-39
2022/01/06 04:52:13;;;;;;;26.70;17.20;;;6.30;91.50;;;;;;5035579;28;20428;-41
2022/01/06 04:54:39;;;;;;;26.17;17.13;;;6.40;91.40;;;;;;5035451;28;20368;-38
2022/01/06 04:57:05;;;;;;;31.45;18.75;;;6.40;91.30;;;;;;5035650;28;20024;-41
2022/01/06 04:59:30;;;;;;;32.97;17.90;;;6.40;91.20;;;;;;5035191;28;20109;-38
2022/01/06 05:01:56;;;;;;;32.65;18.35;;;6.40;91.20;;;;;;5035335;28;20034;-41
2022/01/06 05:04:22;;;;;;;32.45;18.35;;;6.50;91.10;;;;;;5035000;28;20087;-38
2022/01/06 05:06:50;;;;;;;27.35;16.08;;;6.50;91.00;;;;;;5035364;28;20414;-41
2022/01/06 05:09:16;;;;;;;30.90;17.98;;;6.50;91.00;;;;;;5035172;28;20068;-38
2022/01/06 05:11:42;;;;;;;30.92;18.25;;;6.50;90.90;;;;;;5035287;28;20037;-38
2022/01/06 05:14:08;;;;;;;29.55;17.88;;;6.50;90.80;;;;;;5035085;28;20025;-38
2022/01/06 05:16:33;;;;;;;37.75;20.48;;;6.50;90.80;;;;;;5034909;28;20048;-39
2022/01/06 05:18:59;;;;;;;35.05;20.42;;;6.60;90.80;;;;;;5035177;28;20305;-37
2022/01/06 05:21:29;;;;;;;32.35;18.02;;;6.60;90.70;;;;;;5035037;28;20121;-36
2022/01/06 05:23:55;;;;;;;35.65;18.65;;;6.60;90.70;;;;;;5035301;28;20412;-36
2022/01/06 05:26:21;;;;;;;31.30;19.35;;;6.60;90.70;;;;;;5035297;28;20069;-38
2022/01/06 05:28:47;;;;;;;36.45;19.27;;;6.60;90.60;;;;;;5038404;28;20033;-36
2022/01/06 05:31:12;;;;;;;30.40;18.52;;;6.60;90.60;;;;;;5038336;28;20030;-36
2022/01/06 05:33:38;;;;;;;35.67;20.25;;;6.60;90.60;;;;;;5038260;28;20032;-36
2022/01/06 05:36:04;;;;;;;33.15;18.90;;;6.70;90.60;;;;;;5038440;28;20100;-37
2022/01/06 05:38:29;;;;;;;31.02;17.73;;;6.70;90.50;;;;;;5038635;28;20432;-36
2022/01/06 05:40:55;;;;;;;33.88;18.95;;;6.70;90.40;;;;;;5038071;28;20029;-37
2022/01/06 05:43:21;;;;;;;30.30;17.80;;;6.70;90.20;;;;;;5038138;28;20075;-37
2022/01/06 05:45:50;;;;;;;36.20;20.02;;;6.70;90.10;;;;;;5038460;28;20029;-38
2022/01/06 05:48:16;;;;;;;31.63;19.42;;;6.70;90.00;;;;;;5038615;28;20443;-37
2022/01/06 05:50:42;;;;;;;37.90;22.77;;;6.60;89.90;;;;;;5037873;28;20128;-36
2022/01/06 05:53:08;;;;;;;31.85;17.33;;;6.60;89.90;;;;;;5038335;28;20022;-39
2022/01/06 05:55:33;;;;;;;35.55;19.35;;;6.60;89.90;;;;;;5037633;28;20033;-40
2022/01/06 05:57:59;;;;;;;38.53;19.80;;;6.60;90.00;;;;;;5038261;28;20290;-39
2022/01/06 06:00:25;;;;;;;38.20;19.45;;;6.60;90.00;;;;;;5038161;28;20140;-39
2022/01/06 06:02:50;;;;;;;28.63;18.83;;;6.60;90.10;;;;;;5037821;28;20033;-40
2022/01/06 06:05:16;;;;;;;32.45;19.30;;;6.60;90.10;;;;;;5037367;28;20056;-38
2022/01/06 06:07:41;;;;;;;31.55;18.05;;;6.60;90.10;;;;;;5038059;28;20502;-39
2022/01/06 06:10:08;;;;;;;29.08;16.10;;;6.60;90.20;;;;;;5037420;28;20034;-39
2022/01/06 06:12:33;;;;;;;29.55;17.08;;;6.60;90.20;;;;;;5037756;28;20079;-40
2022/01/06 06:14:59;;;;;;;32.08;16.65;;;6.60;90.10;;;;;;5037886;28;20033;-39
2022/01/06 06:17:25;;;;;;;27.35;15.93;;;6.60;90.10;;;;;;5038031;28;20049;-40
2022/01/06 06:19:50;;;;;;;30.45;17.13;;;6.60;90.10;;;;;;5037681;28;20033;-39
2022/01/06 06:22:16;;;;;;;24.65;13.88;;;6.60;90.10;;;;;;5038050;28;20029;-39
2022/01/06 06:24:44;;;;;;;28.83;16.67;;;6.60;90.10;;;;;;5037648;28;20033;-39
2022/01/06 06:27:10;;;;;;;27.70;16.23;;;6.60;90.10;;;;;;5037462;28;20112;-37
2022/01/06 06:29:37;;;;;;;31.83;16.92;;;6.60;90.10;;;;;;5037562;28;20069;-36
2022/01/06 06:32:03;;;;;;;31.05;17.67;;;6.60;90.10;;;;;;5037471;28;20044;-38
2022/01/06 06:34:29;;;;;;;29.58;17.73;;;6.60;90.20;;;;;;5037032;28;20044;-36
2022/01/06 06:36:55;;;;;;;28.67;16.50;;;6.70;90.20;;;;;;5037404;28;20021;-37
2022/01/06 06:39:20;;;;;;;24.25;13.80;;;6.70;90.10;;;;;;5037445;28;20025;-38
2022/01/06 06:41:46;;;;;;;31.17;16.00;;;6.70;90.00;;;;;;5038712;28;20086;-37
2022/01/06 06:44:12;;;;;;;30.27;16.30;;;6.70;90.00;;;;;;5036773;28;20033;-36
2022/01/06 06:46:38;;;;;;;39.67;22.63;;;6.80;90.00;;;;;;5049381;28;20329;-37
2022/01/06 06:49:04;;;;;;;26.90;14.32;;;6.80;90.00;;;;;;5056774;28;20529;-36
2022/01/06 06:51:29;;;;;;;25.75;14.95;;;6.80;90.00;;;;;;5056406;28;20110;-36
2022/01/06 06:53:55;;;;;;;24.95;13.85;;;6.80;89.80;;;;;;5056961;28;20037;-36
2022/01/06 06:56:21;;;;;;;33.45;19.27;;;6.90;89.80;;;;;;5055137;28;20397;-36
2022/01/06 06:58:46;;;;;;;23.92;14.80;;;6.90;89.70;;;;;;5056240;28;20040;-38
2022/01/06 07:01:12;;;;;;;26.80;14.43;;;6.90;89.70;;;;;;5048269;28;20029;-36
2022/01/06 07:03:38;;;;;;;25.98;13.98;;;6.90;89.60;;;;;;5052578;28;20473;-36
2022/01/06 07:06:03;;;;;;;22.48;13.98;;;6.90;89.60;;;;;;5037975;28;20022;-36
2022/01/06 07:08:29;;;;;;;22.40;11.75;;;6.90;89.60;;;;;;5036656;28;20061;-38
2022/01/06 07:10:54;;;;;;;22.48;12.57;;;7.00;89.60;;;;;;5036134;28;20096;-37
2022/01/06 07:13:20;;;;;;;20.25;12.35;;;7.00;89.40;;;;;;5036690;28;20052;-37
2022/01/06 07:15:46;;;;;;;21.52;13.55;;;7.00;89.40;;;;;;5036311;28;20306;-36
2022/01/06 07:18:12;;;;;;;20.52;11.55;;;7.00;89.30;;;;;;5036490;28;20044;-39
2022/01/06 07:20:38;;;;;;;20.05;10.55;;;7.00;89.40;;;;;;5036075;28;20370;-39
2022/01/06 07:23:04;;;;;;;19.15;10.70;;;7.00;89.30;;;;;;5036159;28;20379;-39
2022/01/06 07:25:30;;;;;;;18.25;10.68;;;7.10;89.30;;;;;;5036363;28;20091;-39
2022/01/06 07:27:56;;;;;;;20.90;10.93;;;7.10;89.30;;;;;;5036201;28;20029;-39
2022/01/06 07:30:22;;;;;;;17.30;10.43;;;7.10;89.10;;;;;;5035578;28;20033;-38
2022/01/06 07:32:49;;;;;;;16.35;9.32;;;7.10;88.90;;;;;;5055849;28;20059;-39
2022/01/06 07:35:16;;;;;;;14.88;8.70;;;7.20;88.90;;;;;;5055612;28;20033;-39
2022/01/06 07:37:42;;;;;;;14.68;8.48;;;7.20;88.60;;;;;;5055875;28;20025;-39
2022/01/06 07:40:09;;;;;;;14.25;8.98;;;7.20;88.40;;;;;;5055697;28;20429;-39
2022/01/06 07:42:35;;;;;;;11.88;7.72;;;7.20;88.40;;;;;;5056041;28;20033;-39
2022/01/06 07:45:01;;;;;;;12.32;8.25;;;7.30;88.30;;;;;;5055656;28;20033;-39
2022/01/06 07:47:28;;;;;;;12.52;8.02;;;7.30;88.20;;;;;;5055815;28;20040;-39
2022/01/06 07:49:54;;;;;;;16.60;8.50;;;7.30;88.00;;;;;;5054364;28;20063;-39
2022/01/06 07:52:21;;;;;;;15.32;8.70;;;7.30;88.00;;;;;;5055206;28;20421;-39
2022/01/06 07:54:47;;;;;;;13.18;8.40;;;7.40;88.00;;;;;;5055597;28;20029;-40
2022/01/06 07:57:13;;;;;;;14.77;8.25;;;7.40;87.70;;;;;;5055541;28;20043;-39
2022/01/06 07:59:38;;;;;;;12.95;8.00;;;7.40;87.50;;;;;;5055381;28;20132;-38
2022/01/06 08:02:04;;;;;;;11.13;7.00;;;7.50;87.20;;;;;;5055335;28;20078;-38
2022/01/06 08:04:30;;;;;;;14.20;8.27;;;7.50;87.00;;;;;;5055480;28;20121;-39
2022/01/06 08:06:55;;;;;;;13.48;7.35;;;7.40;86.70;;;;;;5055127;28;20396;-39
2022/01/06 08:09:21;;;;;;;13.27;7.43;;;7.50;86.60;;;;;;5055074;28;20163;-39
2022/01/06 08:11:47;;;;;;;12.55;7.80;;;7.50;86.40;;;;;;5055260;28;20083;-40
2022/01/06 08:14:12;;;;;;;15.65;7.90;;;7.50;86.30;;;;;;5052737;28;20126;-40
2022/01/06 08:16:38;;;;;;;11.63;7.30;;;7.50;86.20;;;;;;5055464;28;20112;-39
2022/01/06 08:19:04;;;;;;;11.45;7.10;;;7.40;86.10;;;;;;5055387;28;20310;-39
2022/01/06 08:21:30;;;;;;;10.52;6.95;;;7.40;86.30;;;;;;5055165;28;20033;-39
2022/01/06 08:23:55;;;;;;;12.20;7.45;;;7.40;86.30;;;;;;5055824;28;20412;-40
2022/01/06 08:26:21;;;;;;;10.35;6.45;;;7.40;86.40;;;;;;5054747;28;20091;-40
2022/01/06 08:28:46;;;;;;;12.15;7.72;;;7.40;86.50;;;;;;5055541;28;20040;-40
2022/01/06 08:31:13;;;;;;;11.57;7.72;;;7.40;86.40;;;;;;5055389;28;20306;-39
2022/01/06 08:33:39;;;;;;;15.77;9.38;;;7.30;86.30;;;;;;5054998;28;20033;-39
2022/01/06 08:36:05;;;;;;;14.25;7.95;;;7.30;86.60;;;;;;5054995;28;20033;-39
2022/01/06 08:38:31;;;;;;;12.77;7.57;;;7.30;86.80;;;;;;5055096;28;20048;-40
2022/01/06 08:40:57;;;;;;;14.98;7.85;;;7.30;87.10;;;;;;5055030;28;20033;-39
2022/01/06 08:43:27;;;;;;;15.55;8.25;;;7.30;87.10;;;;;;5054923;28;20033;-39
2022/01/06 08:45:59;;;;;;;14.30;8.18;;;7.30;87.00;;;;;;5055182;28;20036;-39
2022/01/06 08:48:25;;;;;;;17.23;8.25;;;7.30;87.00;;;;;;5055046;28;20275;-39
2022/01/06 08:50:52;;;;;;;18.13;8.90;;;7.30;87.20;;;;;;5054861;28;20441;-39
2022/01/06 08:53:17;;;;;;;14.13;8.82;;;7.30;87.30;;;;;;5055143;28;20333;-40
2022/01/06 08:55:46;;;;;;;13.77;8.15;;;7.30;87.20;;;;;;5055109;28;20033;-39
2022/01/06 08:58:13;;;;;;;17.75;9.50;;;7.30;87.20;;;;;;5055021;28;20060;-40
2022/01/06 09:00:39;;;;;;;14.63;8.65;;;7.30;87.20;;;;;;5055405;28;20041;-40
2022/01/06 09:03:06;;;;;;;19.42;9.70;;;7.30;87.20;;;;;;5059059;28;20032;-40
2022/01/06 09:05:36;;;;;;;15.30;8.93;;;7.30;87.40;;;;;;5059054;28;20041;-36
2022/01/06 09:08:02;;;;;;;21.38;10.52;;;7.20;87.50;;;;;;5058931;28;20093;-40
2022/01/06 09:10:33;;;;;;;19.75;12.82;;;7.20;87.80;;;;;;5059045;28;20047;-40
2022/01/06 09:12:59;;;;;;;;;;;7.20;87.90;;;;;;5059359;28;20064;-40
2022/01/06 09:15:24;;;;;;;16.13;9.30;;;7.20;87.60;;;;;;5058626;28;20267;-39
2022/01/06 09:17:50;;;;;;;20.35;9.75;;;7.10;88.10;;;;;;5058503;28;20052;-39
2022/01/06 09:20:16;;;;;;;19.70;9.90;;;7.10;88.30;;;;;;5058514;28;20029;-39
2022/01/06 09:22:43;;;;;;;17.63;10.43;;;7.10;88.80;;;;;;5058505;28;20037;-39
2022/01/06 09:25:10;;;;;;;16.35;9.63;;;7.10;89.10;;;;;;5058601;28;20065;-40
2022/01/06 09:27:36;;;;;;;25.40;9.75;;;7.10;89.20;;;;;;5058560;28;20025;-39
2022/01/06 09:30:03;;;;;;;17.92;9.90;;;7.20;89.40;;;;;;5058609;28;20041;-40
2022/01/06 09:32:28;;;;;;;27.88;11.93;;;7.20;89.60;;;;;;5058395;28;20029;-40
2022/01/06 09:34:54;;;;;;;25.42;9.85;;;7.20;89.80;;;;;;5058342;28;20067;-39
2022/01/06 09:37:20;;;;;;;29.90;15.93;;;7.20;89.80;;;;;;5058381;28;20017;-39
2022/01/06 09:39:47;;;;;;;21.95;12.20;;;7.20;89.70;;;;;;5058181;28;20402;-39
2022/01/06 09:42:14;;;;;;;16.17;10.10;;;7.30;89.60;;;;;;5058076;28;20055;-39
2022/01/06 09:44:40;;;;;;;16.88;10.45;;;7.30;89.60;;;;;;5058332;28;20037;-39
2022/01/06 09:47:09;;;;;;;17.38;10.95;;;7.30;89.50;;;;;;5058479;28;20056;-40
2022/01/06 09:49:40;;;;;;;21.58;11.05;;;7.30;89.40;;;;;;5057626;28;20053;-39
2022/01/06 09:52:06;;;;;;;19.30;10.25;;;7.30;89.50;;;;;;5057860;28;20040;-40
2022/01/06 09:54:34;;;;;;;20.50;10.75;;;7.30;89.50;;;;;;5057683;28;20084;-40
2022/01/06 09:56:59;;;;;;;19.83;10.93;;;7.30;89.40;;;;;;5057746;28;20040;-40
2022/01/06 09:59:26;;;;;;;16.58;9.80;;;7.30;89.60;;;;;;5057784;28;20317;-39
2022/01/06 10:01:52;;;;;;;22.17;11.45;;;7.30;89.50;;;;;;5058107;28;20036;-40
2022/01/06 10:04:28;;;;;;;17.92;10.10;;;7.30;89.70;;;;;;5057985;28;20041;-40
2022/01/06 10:07:09;;;;;;;14.13;9.25;;;7.30;89.30;;;;;;5057946;28;20033;-39
2022/01/06 10:09:37;;;;;;;16.07;10.43;;;7.30;89.00;;;;;;5057992;28;20523;-40
2022/01/06 10:12:11;;;;;;;14.70;9.60;;;7.20;89.00;;;;;;5057077;28;20333;-39
2022/01/06 10:14:46;;;;;;;22.15;12.48;;;7.20;89.20;;;;;;5056838;28;20039;-39
2022/01/06 10:17:12;;;;;;;21.45;12.07;;;7.20;89.30;;;;;;5057668;28;20021;-39
2022/01/06 10:19:43;;;;;;;16.52;10.43;;;7.20;89.60;;;;;;5057333;28;20033;-39
2022/01/06 10:22:12;;;;;;;17.50;10.52;;;7.20;89.70;;;;;;5057709;28;20406;-39
2022/01/06 10:24:38;;;;;;;19.13;11.65;;;7.20;89.80;;;;;;5057260;28;20041;-39
2022/01/06 10:27:09;;;;;;;22.75;13.27;;;7.20;89.80;;;;;;5057131;28;20032;-40
2022/01/06 10:29:41;;;;;;;23.70;13.48;;;7.20;89.80;;;;;;5056810;28;20116;-39
2022/01/06 10:32:09;;;;;;;18.90;12.57;;;7.20;90.00;;;;;;5057423;28;20040;-39
2022/01/06 10:34:50;;;;;;;19.17;11.40;;;7.20;90.00;;;;;;5057110;28;20036;-40
2022/01/06 10:37:25;;;;;;;20.70;12.93;;;7.30;89.80;;;;;;5057082;28;20087;-39
2022/01/06 10:39:55;;;;;;;18.33;11.82;;;7.30;89.60;;;;;;5057000;28;20064;-39
2022/01/06 10:42:23;;;;;;;22.95;14.20;;;7.30;89.80;;;;;;5057241;28;20363;-39
2022/01/06 10:44:51;;;;;;;21.42;12.57;;;7.30;90.00;;;;;;5056910;28;20068;-39
2022/01/06 10:47:33;;;;;;;20.38;11.70;;;7.30;89.90;;;;;;5056818;28;20027;-40
2022/01/06 10:50:19;;;;;;;18.85;11.82;;;7.30;89.70;;;;;;5056311;28;20091;-40
2022/01/06 10:52:48;;;;;;;18.15;10.75;;;7.40;89.50;;;;;;5048784;28;20121;-38
2022/01/06 10:55:18;;;;;;;17.05;11.20;;;7.40;89.60;;;;;;5036032;28;20033;-39
2022/01/06 10:57:53;;;;;;;19.10;12.30;;;7.40;89.40;;;;;;5036107;28;20100;-40
2022/01/06 11:00:21;;;;;;;21.77;13.27;;;7.40;89.40;;;;;;5036289;28;20474;-40
2022/01/06 11:02:47;;;;;;;20.55;12.52;;;7.40;89.50;;;;;;5036078;28;20107;-39
2022/01/06 11:05:13;;;;;;;18.55;11.52;;;7.50;89.40;;;;;;5035919;28;20038;-40
2022/01/06 11:07:38;;;;;;;17.05;10.95;;;7.50;89.30;;;;;;5036248;28;20034;-39
2022/01/06 11:10:15;;;;;;;20.02;12.63;;;7.50;89.40;;;;;;5036215;28;20029;-40
2022/01/06 11:12:41;;;;;;;17.67;11.30;;;7.50;89.40;;;;;;5036758;28;20037;-39
2022/01/06 11:15:08;;;;;;;19.63;12.82;;;7.60;89.30;;;;;;5036201;28;20433;-39
2022/01/06 11:17:34;;;;;;;20.20;11.30;;;7.60;89.40;;;;;;5036611;28;20021;-39
2022/01/06 11:20:00;;;;;;;17.92;11.30;;;7.60;89.40;;;;;;5036161;28;20072;-40
2022/01/06 11:22:27;;;;;;;21.13;10.95;;;7.70;89.30;;;;;;5036356;28;20045;-40
2022/01/06 11:24:59;;;;;;;17.83;9.93;;;7.70;88.80;;;;;;5035985;28;20029;-39
2022/01/06 11:27:37;;;;;;;17.92;11.20;;;7.70;88.20;;;;;;5036272;28;20163;-39
2022/01/06 11:30:13;;;;;;;34.08;13.85;;;7.70;87.90;;;;;;5035971;28;20090;-39
2022/01/06 11:32:41;;;;;;;22.90;12.20;;;7.70;88.10;;;;;;5035702;28;20410;-39
2022/01/06 11:35:11;;;;;;;25.85;14.27;;;7.70;88.10;;;;;;5035889;28;20059;-40
2022/01/06 11:38:02;;;;;;;18.48;11.07;;;7.70;88.30;;;;;;5036185;28;20033;-39
2022/01/06 11:40:33;;;;;;;15.52;10.10;;;7.80;88.40;;;;;;5035744;28;20184;-40
2022/01/06 11:42:59;;;;;;;;;;;7.80;88.50;;;;;;5036387;28;20411;-39
2022/01/06 11:45:25;;;;;;;17.65;10.35;;;7.80;88.30;;;;;;5035817;28;19996;-39
2022/01/06 11:48:04;;;;;;;19.15;12.50;;;7.80;88.30;;;;;;5035741;28;20041;-40
2022/01/06 11:50:39;;;;;;;16.63;10.52;;;7.80;88.00;;;;;;5035354;28;20395;-39
2022/01/06 11:53:07;;;;;;;15.55;9.95;;;7.80;87.80;;;;;;5035762;28;20441;-40
2022/01/06 11:55:40;;;;;;;17.35;10.70;;;7.90;87.60;;;;;;5035897;28;20046;-40
2022/01/06 11:58:21;;;;;;;18.08;11.45;;;7.90;87.60;;;;;;5035994;28;20037;-39
2022/01/06 12:00:57;;;;;;;18.58;12.15;;;7.90;87.30;;;;;;5035455;28;20034;-39
2022/01/06 12:03:53;;;;;;;16.30;10.40;;;7.90;87.10;;;;;;5035714;28;20060;-39
2022/01/06 12:06:29;;;;;;;17.83;10.70;;;7.90;86.80;;;;;;5034896;28;20390;-40
2022/01/06 12:08:55;;;;;;;19.38;10.68;;;7.80;86.50;;;;;;5036001;28;20045;-39
2022/01/06 12:11:30;;;;;;;18.35;10.93;;;7.80;86.60;;;;;;5034786;28;20033;-39
2022/01/06 12:13:59;;;;;;;20.63;10.85;;;7.80;86.70;;;;;;5035479;28;20037;-39
2022/01/06 12:16:28;;;;;;;17.05;10.85;;;7.80;86.70;;;;;;5035461;28;20022;-40
2022/01/06 12:18:55;;;;;;;21.33;11.40;;;7.80;86.30;;;;;;5035539;28;20041;-39
2022/01/06 12:21:22;;;;;;;17.30;10.40;;;7.70;86.10;;;;;;5035015;28;20026;-40
2022/01/06 12:23:58;;;;;;;19.33;11.80;;;7.80;86.20;;;;;;5035551;28;20103;-39
2022/01/06 12:26:23;;;;;;;21.48;12.68;;;7.70;86.40;;;;;;5035045;28;20039;-40
2022/01/06 12:28:49;;;;;;;16.02;10.93;;;7.70;86.50;;;;;;5034343;28;20128;-40
2022/01/06 12:31:27;;;;;;;17.92;10.20;;;7.70;86.50;;;;;;5035111;28;20097;-39
2022/01/06 12:33:58;;;;;;;19.92;11.50;;;7.80;86.30;;;;;;5035541;28;20365;-39
2022/01/06 12:36:25;;;;;;;18.90;12.05;;;7.80;86.20;;;;;;5037234;28;20034;-39
2022/01/06 12:38:51;;;;;;;19.27;11.57;;;7.70;86.00;;;;;;5038209;28;20383;-39
2022/01/06 12:41:29;;;;;;;20.35;11.35;;;7.70;86.00;;;;;;5038965;28;20029;-40
2022/01/06 12:43:56;;;;;;;16.83;11.23;;;7.70;86.00;;;;;;5039684;28;20033;-40
2022/01/06 12:46:23;;;;;;;18.30;11.02;;;7.70;85.70;;;;;;5039132;28;20031;-39
2022/01/06 12:48:51;;;;;;;14.15;8.13;;;7.70;85.80;;;;;;5038927;28;20045;-40
2022/01/06 12:51:22;;;;;;;22.02;10.35;;;7.60;84.20;;;;;;5038963;28;20057;-39